createdAt,value
2023-03-10T00:01:49.746Z,25.63
2023-03-10T00:06:51.513Z,22.37
2023-03-10T00:11:54.638Z,22.20
2023-03-10T00:16:56.562Z,20.20
2023-03-10T00:21:58.338Z,19.80
2023-03-10T00:27:01.364Z,22.43
2023-03-10T00:32:03.153Z,18.30
2023-03-10T00:37:04.951Z,20.43
2023-03-10T00:42:08.134Z,20.00
2023-03-10T00:47:09.871Z,18.53
2023-03-10T00:52:11.571Z,16.03
2023-03-10T00:57:14.822Z,16.30
2023-03-10T01:02:16.741Z,15.90
2023-03-10T01:07:18.448Z,17.10
2023-03-10T01:12:21.916Z,14.93
2023-03-10T01:17:23.685Z,14.20
2023-03-10T01:22:25.414Z,16.73
2023-03-10T01:27:28.622Z,13.83
2023-03-10T01:32:30.388Z,15.70
2023-03-10T01:37:32.244Z,13.33
2023-03-10T01:42:35.371Z,15.30
2023-03-10T01:47:37.209Z,13.10
2023-03-10T01:52:40.586Z,16.00
2023-03-10T01:57:44.984Z,12.00
2023-03-10T02:02:49.457Z,13.37
2023-03-10T02:07:51.276Z,10.47
2023-03-10T02:12:57.294Z,8.97
2023-03-10T02:17:59.292Z,11.30
2023-03-10T02:23:01.234Z,10.93
2023-03-10T02:28:04.549Z,9.63
2023-03-10T02:33:07.853Z,9.53
2023-03-10T02:38:09.794Z,9.37
2023-03-10T02:43:16.436Z,9.43
2023-03-10T02:48:19.838Z,6.17
2023-03-10T02:53:22.287Z,6.93
2023-03-10T02:58:27.280Z,8.63
2023-03-10T03:03:30.606Z,6.10
2023-03-10T03:08:33.399Z,5.20
2023-03-10T03:13:38.123Z,5.03
2023-03-10T03:18:41.015Z,6.43
2023-03-10T03:23:45.685Z,7.30
2023-03-10T03:28:49.440Z,4.80
2023-03-10T03:33:54.823Z,8.10
2023-03-10T03:38:57.439Z,6.83
2023-03-10T03:44:01.776Z,4.30
2023-03-10T03:49:05.589Z,6.10
2023-03-10T03:54:07.656Z,4.60
2023-03-10T03:59:13.045Z,5.10
2023-03-10T04:04:15.945Z,4.97
2023-03-10T04:09:18.265Z,3.73
2023-03-10T04:14:21.619Z,4.63
2023-03-10T04:19:23.616Z,6.53
2023-03-10T04:24:29.819Z,7.20
2023-03-10T04:29:33.500Z,5.33
2023-03-10T04:34:35.374Z,5.50
2023-03-10T04:39:38.349Z,3.27
2023-03-10T04:44:42.806Z,4.47
2023-03-10T04:49:44.653Z,4.07
2023-03-10T04:54:48.035Z,4.20
2023-03-10T04:59:51.705Z,3.40
2023-03-10T05:04:53.893Z,3.07
2023-03-10T05:09:56.266Z,4.90
2023-03-10T05:14:59.462Z,3.97
2023-03-10T05:20:01.765Z,2.60
2023-03-10T05:25:06.082Z,2.43
2023-03-10T05:30:11.498Z,3.10
2023-03-10T05:35:13.338Z,2.43
2023-03-10T05:40:19.180Z,2.40
2023-03-10T05:45:22.976Z,2.80
2023-03-10T05:50:25.775Z,4.50
2023-03-10T05:55:29.716Z,3.83
2023-03-10T06:00:33.011Z,8.03
2023-03-10T06:05:36.367Z,3.07
2023-03-10T06:10:38.282Z,2.87
2023-03-10T06:15:41.341Z,2.90
2023-03-10T06:20:43.122Z,2.87
2023-03-10T06:25:44.911Z,2.87
2023-03-10T06:30:53.408Z,3.20
2023-03-10T06:35:55.180Z,4.53
2023-03-10T06:40:56.934Z,3.10
2023-03-10T06:46:02.215Z,3.00
2023-03-10T06:51:05.693Z,3.20
2023-03-10T06:56:09.054Z,3.27
2023-03-10T07:01:21.097Z,3.83
2023-03-10T07:06:23.064Z,4.67
2023-03-10T07:11:25.276Z,5.97
2023-03-10T07:16:28.440Z,6.07
2023-03-10T07:21:30.287Z,7.63
2023-03-10T07:26:31.944Z,7.87
2023-03-10T07:31:36.596Z,7.30
2023-03-10T07:36:38.294Z,7.90
2023-03-10T07:41:39.996Z,6.77
2023-03-10T07:46:43.498Z,6.10
2023-03-10T07:51:45.186Z,6.30
2023-03-10T07:56:47.494Z,10.20
2023-03-10T08:01:51.477Z,6.07
2023-03-10T08:06:53.247Z,7.53
2023-03-10T08:11:55.391Z,6.57
2023-03-10T08:16:58.619Z,5.60
2023-03-10T08:22:02.101Z,9.07
2023-03-10T08:27:04.203Z,11.83
2023-03-10T08:32:07.880Z,5.67
2023-03-10T08:37:09.680Z,6.60
2023-03-10T08:42:11.980Z,4.80
2023-03-10T08:47:15.032Z,5.97
2023-03-10T08:52:16.803Z,4.97
2023-03-10T08:57:18.506Z,4.83
2023-03-10T09:02:22.257Z,5.93
2023-03-10T09:07:24.188Z,5.20
2023-03-10T09:12:29.566Z,5.27
2023-03-10T09:17:38.787Z,6.23
2023-03-10T09:22:41.891Z,6.97
2023-03-10T09:27:46.498Z,5.40
2023-03-10T09:32:49.776Z,4.70
2023-03-10T09:37:51.530Z,4.27
2023-03-10T09:42:55.773Z,5.23
2023-03-10T09:48:26.223Z,4.43
2023-03-10T09:53:41.554Z,6.93
2023-03-10T09:58:45.377Z,4.50
2023-03-10T10:03:53.104Z,5.43
2023-03-10T10:09:05.283Z,3.73
2023-03-10T10:14:22.447Z,5.90
2023-03-10T10:19:31.265Z,4.33
2023-03-10T10:24:33.090Z,3.73
2023-03-10T10:29:36.548Z,4.60
2023-03-10T10:34:40.045Z,5.40
2023-03-10T10:39:42.223Z,9.40
2023-03-10T10:44:44.467Z,10.20
2023-03-10T10:49:47.550Z,5.00
2023-03-10T10:54:54.176Z,5.87
2023-03-10T10:59:55.928Z,6.57
2023-03-10T11:05:06.809Z,7.50
2023-03-10T11:10:12.175Z,6.90
2023-03-10T11:15:16.614Z,5.80
2023-03-10T11:20:24.744Z,7.03
2023-03-10T11:25:29.040Z,7.33
2023-03-10T11:30:31.470Z,6.77
2023-03-10T11:35:37.789Z,6.00
2023-03-10T11:40:43.039Z,5.23
2023-03-10T11:45:48.494Z,5.80
2023-03-10T11:50:55.450Z,4.80
2023-03-10T11:55:57.460Z,6.80
2023-03-10T12:00:59.129Z,5.97
2023-03-10T12:06:02.164Z,6.00
2023-03-10T12:11:05.103Z,5.50
2023-03-10T12:16:07.489Z,7.47
2023-03-10T12:21:15.273Z,7.27
2023-03-10T12:27:02.480Z,5.53
2023-03-10T12:32:04.607Z,6.00
2023-03-10T12:37:08.622Z,6.60
2023-03-10T12:42:27.276Z,8.70
2023-03-10T12:47:37.935Z,6.77
2023-03-10T12:52:48.195Z,12.50
2023-03-10T12:57:54.354Z,10.37
2023-03-10T13:02:58.619Z,9.47
2023-03-10T13:08:03.025Z,8.50
2023-03-10T13:13:05.848Z,7.43
2023-03-10T13:18:18.850Z,11.10
2023-03-10T13:23:38.143Z,10.10
2023-03-10T13:28:53.570Z,12.43
2023-03-10T13:33:57.412Z,10.07
2023-03-10T13:39:17.815Z,8.97
2023-03-10T13:44:26.870Z,12.37
2023-03-10T13:49:33.873Z,10.00
2023-03-10T13:54:43.362Z,10.70
2023-03-10T13:59:49.875Z,12.53
2023-03-10T14:04:54.078Z,10.27
2023-03-10T14:10:15.057Z,12.20
2023-03-10T14:15:26.600Z,14.50
2023-03-10T14:20:34.501Z,9.30
2023-03-10T14:25:44.827Z,12.90
2023-03-10T14:30:47.071Z,10.80
2023-03-10T14:35:53.045Z,11.77
2023-03-10T14:40:59.133Z,12.37
2023-03-10T14:46:05.800Z,10.20
2023-03-10T14:51:14.413Z,12.33
2023-03-10T14:56:18.852Z,10.70
2023-03-10T15:01:20.686Z,12.93
2023-03-10T15:06:22.469Z,10.17
2023-03-10T15:11:37.123Z,12.37
2023-03-10T15:16:39.424Z,12.00
2023-03-10T15:21:41.175Z,13.80
2023-03-10T15:26:44.260Z,13.10
2023-03-10T15:31:45.938Z,14.77
2023-03-10T15:36:47.605Z,13.17
2023-03-10T15:41:50.626Z,15.27
2023-03-10T15:46:54.739Z,15.67
2023-03-10T15:51:57.454Z,16.03
2023-03-10T15:57:01.058Z,19.80
2023-03-10T16:02:03.061Z,16.57
2023-03-10T16:07:05.153Z,18.07
2023-03-10T16:12:08.572Z,18.53
2023-03-10T16:17:11.748Z,17.10
2023-03-10T16:22:13.622Z,15.70
2023-03-10T16:27:17.253Z,16.77
2023-03-10T16:32:19.799Z,19.63
2023-03-10T16:37:21.619Z,17.07
2023-03-10T16:42:26.234Z,16.80
2023-03-10T16:47:29.060Z,18.57
2023-03-10T16:52:30.874Z,20.43
2023-03-10T16:57:33.972Z,17.07
2023-03-10T17:02:35.738Z,18.00
2023-03-10T17:07:43.493Z,17.93
2023-03-10T17:12:56.783Z,19.70
2023-03-10T17:17:58.587Z,19.57
2023-03-10T17:23:00.448Z,19.67
2023-03-10T17:28:03.881Z,16.23
2023-03-10T17:33:05.663Z,22.70
2023-03-10T17:38:07.424Z,19.73
2023-03-10T17:43:23.177Z,21.03
2023-03-10T17:48:32.546Z,17.80
2023-03-10T17:53:34.374Z,20.00
2023-03-10T17:58:37.594Z,20.27
2023-03-10T18:03:39.470Z,26.40
2023-03-10T18:08:41.439Z,27.03
2023-03-10T18:13:44.582Z,26.00
2023-03-10T18:18:46.655Z,23.23
2023-03-10T18:23:48.725Z,27.20
2023-03-10T18:28:51.974Z,27.23
2023-03-10T18:33:55.584Z,23.47
2023-03-10T18:38:58.023Z,27.67
2023-03-10T18:44:01.408Z,26.13
2023-03-10T18:49:03.271Z,32.20
2023-03-10T18:54:06.859Z,30.30
2023-03-10T18:59:10.576Z,27.30
2023-03-10T19:04:12.373Z,26.77
2023-03-10T19:09:14.491Z,23.80
2023-03-10T19:14:17.698Z,19.80
2023-03-10T19:19:19.474Z,24.80
2023-03-10T19:24:21.282Z,21.70
2023-03-10T19:29:24.452Z,23.83
2023-03-10T19:34:26.200Z,22.57
2023-03-10T19:39:27.955Z,16.80
2023-03-10T19:44:31.821Z,18.33
2023-03-10T19:49:34.182Z,18.00
2023-03-10T19:54:35.977Z,18.80
2023-03-10T19:59:39.678Z,17.37
2023-03-10T20:04:41.583Z,18.67
2023-03-10T20:09:43.307Z,19.43
2023-03-10T20:14:46.472Z,19.70
2023-03-10T20:19:48.296Z,15.67
2023-03-10T20:24:50.105Z,17.73
2023-03-10T20:29:53.386Z,15.20
2023-03-10T20:34:55.246Z,13.80
2023-03-10T20:39:56.969Z,12.03
2023-03-10T20:45:00.430Z,10.00
2023-03-10T20:50:03.903Z,9.43
2023-03-10T20:55:07.839Z,9.40
2023-03-10T21:00:12.433Z,7.00
2023-03-10T21:05:14.482Z,5.47
2023-03-10T21:10:16.797Z,5.00
2023-03-10T21:15:20.318Z,4.57
2023-03-10T21:20:22.842Z,5.03
2023-03-10T21:25:25.181Z,4.87
2023-03-10T21:30:29.398Z,5.97
2023-03-10T21:35:34.129Z,4.97
2023-03-10T21:40:36.053Z,6.27
2023-03-10T21:45:39.346Z,6.67
2023-03-10T21:50:41.248Z,7.83
2023-03-10T21:55:43.000Z,7.77
2023-03-10T22:00:46.138Z,9.67
2023-03-10T22:05:48.980Z,8.00
2023-03-10T22:10:50.838Z,8.37
2023-03-10T22:15:53.955Z,8.57
2023-03-10T22:20:55.810Z,8.60
2023-03-10T22:25:57.581Z,7.63
2023-03-10T22:31:00.710Z,7.10
2023-03-10T22:36:03.963Z,7.50
2023-03-10T22:41:09.310Z,9.10
2023-03-10T22:46:13.103Z,12.30
2023-03-10T22:51:16.767Z,12.23
2023-03-10T22:56:18.548Z,13.50
2023-03-10T23:01:21.749Z,11.37
2023-03-10T23:06:24.510Z,12.57
2023-03-10T23:11:26.323Z,12.73
2023-03-10T23:16:29.576Z,10.37
2023-03-10T23:21:31.298Z,10.43
2023-03-10T23:26:35.022Z,11.20
2023-03-10T23:31:38.176Z,8.80
2023-03-10T23:36:40.054Z,8.43
2023-03-10T23:41:41.810Z,10.53
2023-03-10T23:46:44.914Z,8.33
2023-03-10T23:51:46.670Z,10.03
2023-03-10T23:56:49.048Z,9.00
